createdAt,value
2018-03-02T00:00:46.864Z,98094
2018-03-02T00:02:53.036Z,98094
2018-03-02T00:05:01.275Z,98089
2018-03-02T00:07:07.200Z,98094
2018-03-02T00:09:11.917Z,98087
2018-03-02T00:11:18.344Z,98092
2018-03-02T00:13:24.493Z,98088
2018-03-02T00:15:30.982Z,98088
2018-03-02T00:17:37.183Z,98094
2018-03-02T00:19:42.545Z,98087
2018-03-02T00:21:48.641Z,98086
2018-03-02T00:23:54.756Z,98088
2018-03-02T00:26:01.849Z,98085
2018-03-02T00:28:07.761Z,98088
2018-03-02T00:30:14.183Z,98082
2018-03-02T00:32:20.004Z,98081
2018-03-02T00:34:25.664Z,98085
2018-03-02T00:36:43.907Z,98086
2018-03-02T00:38:49.683Z,98083
2018-03-02T00:40:55.168Z,98083
2018-03-02T00:43:01.617Z,98078
2018-03-02T00:45:08.032Z,98077
2018-03-02T00:47:13.952Z,98075
2018-03-02T00:49:19.807Z,98076
2018-03-02T00:51:26.210Z,98080
2018-03-02T00:53:31.999Z,98077
2018-03-02T00:55:38.167Z,98077
2018-03-02T00:57:44.572Z,98069
2018-03-02T00:59:50.739Z,98064
2018-03-02T01:01:56.935Z,98067
2018-03-02T01:04:02.883Z,98065
2018-03-02T01:06:09.297Z,98064
2018-03-02T01:08:16.113Z,98063
2018-03-02T01:10:22.642Z,98055
2018-03-02T01:12:30.068Z,98057
2018-03-02T01:14:38.679Z,98049
2018-03-02T01:16:46.297Z,98051
2018-03-02T01:18:51.800Z,98051
2018-03-02T01:20:58.833Z,98045
2018-03-02T01:23:04.903Z,98035
2018-03-02T01:25:11.300Z,98028
2018-03-02T01:27:17.207Z,98034
2018-03-02T01:29:23.314Z,98028
2018-03-02T01:31:29.395Z,98026
2018-03-02T01:33:36.135Z,98028
2018-03-02T01:35:42.903Z,98026
2018-03-02T01:37:49.094Z,98021
2018-03-02T01:39:55.178Z,98023
2018-03-02T01:42:02.463Z,98022
2018-03-02T01:44:08.610Z,98013
2018-03-02T01:46:14.842Z,98015
2018-03-02T01:48:20.736Z,98011
2018-03-02T01:50:26.841Z,98007
2018-03-02T01:52:33.376Z,98002
2018-03-02T01:54:39.396Z,98000
2018-03-02T01:56:46.118Z,98001
2018-03-02T01:58:53.001Z,97995
2018-03-02T02:01:00.086Z,97996
2018-03-02T02:03:06.604Z,97994
2018-03-02T02:05:12.611Z,97991
2018-03-02T02:07:18.609Z,97985
2018-03-02T02:09:25.120Z,97992
2018-03-02T02:11:33.206Z,97989
2018-03-02T02:13:39.312Z,97979
2018-03-02T02:15:45.295Z,97978
2018-03-02T02:17:51.393Z,97974
2018-03-02T02:19:57.552Z,97970
2018-03-02T02:22:06.444Z,97971
2018-03-02T02:24:12.832Z,97961
2018-03-02T02:26:23.540Z,97958
2018-03-02T02:28:29.508Z,97957
2018-03-02T02:30:35.848Z,97954
2018-03-02T02:32:41.923Z,97951
2018-03-02T02:34:48.331Z,97955
2018-03-02T02:36:54.166Z,97952
2018-03-02T02:39:00.732Z,97948
2018-03-02T02:41:07.081Z,97950
2018-03-02T02:43:12.908Z,97944
2018-03-02T02:45:18.867Z,97948
2018-03-02T02:47:24.578Z,97951
2018-03-02T02:49:30.875Z,97951
2018-03-02T02:51:36.819Z,97944
2018-03-02T02:53:42.924Z,97943
2018-03-02T02:55:48.718Z,97944
2018-03-02T02:57:54.824Z,97945
2018-03-02T03:00:02.687Z,97943
2018-03-02T03:02:08.724Z,97938
2018-03-02T03:04:14.862Z,97941
2018-03-02T03:08:30.708Z,97941
2018-03-02T03:10:35.993Z,97941
2018-03-02T03:12:42.200Z,97950
2018-03-02T03:14:47.763Z,97945
2018-03-02T03:16:53.649Z,97946
2018-03-02T03:18:59.355Z,97938
2018-03-02T03:21:05.576Z,97937
2018-03-02T03:23:11.589Z,97939
2018-03-02T03:25:16.790Z,97936
2018-03-02T03:27:23.157Z,97933
2018-03-02T03:29:29.041Z,97930
2018-03-02T03:31:35.000Z,97929
2018-03-02T03:33:41.327Z,97923
2018-03-02T03:35:48.185Z,97925
2018-03-02T03:37:53.544Z,97922
2018-03-02T03:40:00.307Z,97918
2018-03-02T03:42:05.611Z,97911
2018-03-02T03:44:11.683Z,97912
2018-03-02T03:46:17.396Z,97916
2018-03-02T03:48:23.140Z,97917
2018-03-02T03:50:29.531Z,97917
2018-03-02T03:52:35.386Z,97916
2018-03-02T03:54:42.694Z,97917
2018-03-02T03:56:48.491Z,97916
2018-03-02T03:58:54.595Z,97920
2018-03-02T04:01:00.316Z,97918
2018-03-02T04:03:06.877Z,97914
2018-03-02T04:05:12.850Z,97912
2018-03-02T04:07:18.751Z,97910
2018-03-02T04:09:24.852Z,97913
2018-03-02T04:11:30.792Z,97905
2018-03-02T04:13:36.941Z,97900
2018-03-02T04:15:42.788Z,97895
2018-03-02T04:17:48.915Z,97895
2018-03-02T04:19:58.938Z,97892
2018-03-02T04:22:04.355Z,97893
2018-03-02T04:24:10.452Z,97894
2018-03-02T04:26:16.091Z,97897
2018-03-02T04:28:27.924Z,97896
2018-03-02T04:30:34.308Z,97891
2018-03-02T04:32:40.693Z,97891
2018-03-02T04:34:46.991Z,97894
2018-03-02T04:36:53.040Z,97892
2018-03-02T04:39:01.056Z,97899
2018-03-02T04:41:06.875Z,97891
2018-03-02T04:43:12.787Z,97893
2018-03-02T04:45:19.177Z,97885
2018-03-02T04:47:25.827Z,97877
2018-03-02T04:49:31.728Z,97878
2018-03-02T04:51:37.654Z,97879
2018-03-02T04:53:44.137Z,97872
2018-03-02T04:55:50.561Z,97870
2018-03-02T04:57:56.137Z,97866
2018-03-02T05:00:03.424Z,97870
2018-03-02T05:02:09.028Z,97868
2018-03-02T05:04:14.832Z,97871
2018-03-02T05:06:20.665Z,97872
2018-03-02T05:08:25.883Z,97866
2018-03-02T05:10:31.553Z,97852
2018-03-02T05:12:36.928Z,97861
2018-03-02T05:14:49.674Z,97854
2018-03-02T05:16:55.884Z,97848
2018-03-02T05:19:01.819Z,97845
2018-03-02T05:21:07.703Z,97845
2018-03-02T05:23:13.926Z,97841
2018-03-02T05:25:19.308Z,97840
2018-03-02T05:27:24.978Z,97834
2018-03-02T05:29:30.819Z,97828
2018-03-02T05:31:36.980Z,97827
2018-03-02T05:33:43.040Z,97829
2018-03-02T05:35:49.556Z,97824
2018-03-02T05:37:55.619Z,97826
2018-03-02T05:40:02.179Z,97823
2018-03-02T05:42:07.867Z,97819
2018-03-02T05:44:13.804Z,97825
2018-03-02T05:46:24.333Z,97822
2018-03-02T05:48:33.300Z,97817
2018-03-02T05:50:39.381Z,97806
2018-03-02T05:52:45.822Z,97817
2018-03-02T05:55:01.957Z,97815
2018-03-02T05:57:07.813Z,97814
2018-03-02T05:59:13.108Z,97813
2018-03-02T06:01:19.368Z,97816
2018-03-02T06:03:24.640Z,97816
2018-03-02T06:05:30.294Z,97814
2018-03-02T06:07:35.716Z,97813
2018-03-02T06:09:42.680Z,97819
2018-03-02T06:11:48.164Z,97820
2018-03-02T06:13:54.183Z,97828
2018-03-02T06:16:00.155Z,97829
2018-03-02T06:18:05.893Z,97830
2018-03-02T06:20:11.236Z,97821
2018-03-02T06:22:17.599Z,97819
2018-03-02T06:24:24.333Z,97808
2018-03-02T06:26:29.671Z,97807
2018-03-02T06:28:35.015Z,97803
2018-03-02T06:30:40.638Z,97807
2018-03-02T06:32:46.514Z,97806
2018-03-02T06:34:52.162Z,97803
2018-03-02T06:36:59.345Z,97803
2018-03-02T06:39:05.271Z,97805
2018-03-02T06:41:10.827Z,97805
2018-03-02T06:43:17.677Z,97815
2018-03-02T06:45:23.387Z,97808
2018-03-02T06:47:28.614Z,97798
2018-03-02T06:49:35.190Z,97800
2018-03-02T06:51:40.910Z,97798
2018-03-02T06:53:46.291Z,97794
2018-03-02T06:55:51.625Z,97792
2018-03-02T06:57:57.745Z,97787
2018-03-02T07:00:03.385Z,97792
2018-03-02T07:02:09.839Z,97786
2018-03-02T07:04:15.889Z,97786
2018-03-02T07:06:22.305Z,97782
2018-03-02T07:08:28.464Z,97779
2018-03-02T07:10:33.833Z,97779
2018-03-02T07:12:39.521Z,97779
2018-03-02T07:14:44.860Z,97771
2018-03-02T07:16:50.182Z,97769
2018-03-02T07:18:55.923Z,97767
2018-03-02T07:21:02.395Z,97766
2018-03-02T07:23:08.340Z,97762
2018-03-02T07:25:14.657Z,97763
2018-03-02T07:27:20.869Z,97755
2018-03-02T07:29:26.948Z,97754
2018-03-02T07:31:33.754Z,97748
2018-03-02T07:33:40.064Z,97743
2018-03-02T07:35:45.631Z,97736
2018-03-02T07:37:51.719Z,97732
2018-03-02T07:39:58.791Z,97735
2018-03-02T07:42:04.816Z,97733
2018-03-02T07:44:10.763Z,97733
2018-03-02T07:46:16.177Z,97729
2018-03-02T07:48:21.994Z,97731
2018-03-02T07:50:28.082Z,97729
2018-03-02T07:52:34.429Z,97733
2018-03-02T07:54:40.453Z,97734
2018-03-02T07:56:46.397Z,97715
2018-03-02T07:58:51.714Z,97716
2018-03-02T08:00:58.096Z,97706
2018-03-02T08:03:03.793Z,97710
2018-03-02T08:05:09.080Z,97706
2018-03-02T08:07:14.903Z,97712
2018-03-02T08:09:26.634Z,97713
2018-03-02T08:11:34.260Z,97711
2018-03-02T08:13:40.441Z,97706
2018-03-02T08:15:46.921Z,97708
2018-03-02T08:17:52.240Z,97708
2018-03-02T08:19:58.225Z,97704
2018-03-02T08:22:06.167Z,97704
2018-03-02T08:24:11.538Z,97703
2018-03-02T08:26:16.836Z,97701
2018-03-02T08:28:22.379Z,97701
2018-03-02T08:30:27.906Z,97705
2018-03-02T08:32:33.176Z,97705
2018-03-02T08:34:38.850Z,97707
2018-03-02T08:36:44.140Z,97709
2018-03-02T08:38:49.571Z,97708
2018-03-02T08:40:55.900Z,97711
2018-03-02T08:43:01.225Z,97716
2018-03-02T08:45:06.629Z,97709
2018-03-02T08:47:12.235Z,97708
2018-03-02T08:49:18.387Z,97707
2018-03-02T08:51:23.704Z,97701
2018-03-02T08:53:30.449Z,97698
2018-03-02T08:57:45.257Z,97698
2018-03-02T08:59:50.604Z,97691
2018-03-02T09:01:56.173Z,97679
2018-03-02T09:04:02.816Z,97672
2018-03-02T09:06:08.090Z,97675
2018-03-02T09:08:13.661Z,97675
2018-03-02T09:10:18.918Z,97675
2018-03-02T09:12:24.275Z,97665
2018-03-02T09:14:30.120Z,97664
2018-03-02T09:16:35.357Z,97661
2018-03-02T09:18:40.783Z,97655
2018-03-02T09:20:46.591Z,97653
2018-03-02T09:22:51.926Z,97649
2018-03-02T09:24:57.199Z,97643
2018-03-02T09:27:06.639Z,97642
2018-03-02T09:29:11.876Z,97633
2018-03-02T09:31:17.624Z,97630
2018-03-02T09:33:23.234Z,97623
2018-03-02T09:35:28.822Z,97620
2018-03-02T09:37:34.091Z,97616
2018-03-02T09:39:39.692Z,97608
2018-03-02T09:41:45.460Z,97604
2018-03-02T09:43:51.316Z,97603
2018-03-02T09:45:56.736Z,97606
2018-03-02T09:48:03.145Z,97605
2018-03-02T09:50:08.464Z,97599
2018-03-02T09:52:13.740Z,97599
2018-03-02T09:54:19.872Z,97593
2018-03-02T09:56:25.174Z,97592
2018-03-02T09:58:30.960Z,97593
2018-03-02T10:00:36.592Z,97588
2018-03-02T10:02:45.294Z,97584
2018-03-02T10:04:52.436Z,97581
2018-03-02T10:06:58.199Z,97582
2018-03-02T10:09:04.390Z,97580
2018-03-02T10:11:09.791Z,97572
2018-03-02T10:13:15.526Z,97569
2018-03-02T10:15:20.768Z,97571
2018-03-02T10:17:26.968Z,97563
2018-03-02T10:19:34.504Z,97554
2018-03-02T10:21:40.014Z,97564
2018-03-02T10:23:45.401Z,97569
2018-03-02T10:25:51.271Z,97558
2018-03-02T10:27:57.403Z,97553
2018-03-02T10:30:04.341Z,97551
2018-03-02T10:32:09.937Z,97553
2018-03-02T10:34:15.725Z,97561
2018-03-02T10:36:21.254Z,97560
2018-03-02T10:38:26.810Z,97550
2018-03-02T10:40:32.111Z,97548
2018-03-02T10:42:37.347Z,97551
2018-03-02T10:44:43.020Z,97548
2018-03-02T10:46:48.997Z,97538
2018-03-02T10:48:54.694Z,97538
2018-03-02T10:53:10.276Z,97544
2018-03-02T10:55:15.613Z,97538
2018-03-02T10:57:21.219Z,97542
2018-03-02T10:59:26.547Z,97538
2018-03-02T11:01:32.216Z,97534
2018-03-02T11:03:39.961Z,97527
2018-03-02T11:05:46.676Z,97527
2018-03-02T11:07:52.616Z,97534
2018-03-02T11:09:57.957Z,97532
2018-03-02T11:12:04.897Z,97530
2018-03-02T11:14:10.513Z,97525
2018-03-02T11:18:25.839Z,97518
2018-03-02T11:20:31.864Z,97516
2018-03-02T11:22:37.471Z,97517
2018-03-02T11:24:42.861Z,97515
2018-03-02T11:26:48.300Z,97510
2018-03-02T11:28:54.167Z,97511
2018-03-02T11:31:00.417Z,97505
2018-03-02T11:33:05.793Z,97485
2018-03-02T11:35:17.704Z,97506
2018-03-02T11:37:28.827Z,97507
2018-03-02T11:39:34.318Z,97499
2018-03-02T11:41:39.898Z,97498
2018-03-02T11:43:45.272Z,97488
2018-03-02T11:45:50.600Z,97492
2018-03-02T11:47:56.293Z,97490
2018-03-02T11:50:01.700Z,97490
2018-03-02T11:52:06.944Z,97490
2018-03-02T11:54:13.167Z,97488
2018-03-02T11:56:18.458Z,97483
2018-03-02T11:58:23.802Z,97486
2018-03-02T12:00:29.399Z,97473
2018-03-02T12:02:34.906Z,97456
2018-03-02T12:04:40.404Z,97469
2018-03-02T12:06:45.973Z,97462
2018-03-02T12:08:51.593Z,97455
2018-03-02T12:10:57.704Z,97456
2018-03-02T12:13:03.199Z,97455
2018-03-02T12:15:08.760Z,97458
2018-03-02T12:17:14.443Z,97448
2018-03-02T12:19:20.321Z,97452
2018-03-02T12:21:25.947Z,97448
2018-03-02T12:23:31.280Z,97452
2018-03-02T12:25:36.611Z,97453
2018-03-02T12:27:42.160Z,97447
2018-03-02T12:29:48.424Z,97448
2018-03-02T12:31:53.841Z,97446
2018-03-02T12:34:01.312Z,97443
2018-03-02T12:36:06.591Z,97441
2018-03-02T12:38:12.621Z,97441
2018-03-02T12:40:18.309Z,97440
2018-03-02T12:42:24.744Z,97436
2018-03-02T12:44:30.172Z,97437
2018-03-02T12:46:36.340Z,97439
2018-03-02T12:48:44.768Z,97428
2018-03-02T12:50:52.018Z,97428
2018-03-02T12:52:57.737Z,97422
2018-03-02T12:55:03.019Z,97426
2018-03-02T12:57:08.348Z,97429
2018-03-02T12:59:14.744Z,97426
2018-03-02T13:01:20.231Z,97423
2018-03-02T13:03:25.669Z,97417
2018-03-02T13:05:31.359Z,97417
2018-03-02T13:07:36.724Z,97409
2018-03-02T13:09:42.302Z,97412
2018-03-02T13:11:47.972Z,97409
2018-03-02T13:13:53.323Z,97417
2018-03-02T13:15:58.535Z,97418
2018-03-02T13:18:04.046Z,97416
2018-03-02T13:20:13.758Z,97415
2018-03-02T13:22:28.033Z,97417
2018-03-02T13:24:33.645Z,97415
2018-03-02T13:26:47.364Z,97401
2018-03-02T13:28:54.047Z,97414
2018-03-02T13:31:01.300Z,97412
2018-03-02T13:33:15.137Z,97410
2018-03-02T13:35:20.477Z,97415
2018-03-02T13:37:26.113Z,97402
2018-03-02T13:39:40.016Z,97404
2018-03-02T13:41:55.459Z,97393
2018-03-02T13:44:01.099Z,97416
2018-03-02T13:46:07.453Z,97415
2018-03-02T13:50:25.283Z,97414
2018-03-02T13:52:30.944Z,97424
2018-03-02T13:54:36.271Z,97415
2018-03-02T13:56:50.392Z,97415
2018-03-02T13:58:55.982Z,97410
2018-03-02T14:01:01.435Z,97405
2018-03-02T14:05:18.085Z,97395
2018-03-02T14:07:23.505Z,97405
2018-03-02T14:09:29.521Z,97400
2018-03-02T14:11:34.858Z,97404
2018-03-02T14:13:40.283Z,97402
2018-03-02T14:15:46.202Z,97404
2018-03-02T14:17:51.711Z,97404
2018-03-02T14:19:57.092Z,97406
2018-03-02T14:22:04.791Z,97406
2018-03-02T14:24:10.278Z,97398
2018-03-02T14:26:16.188Z,97399
2018-03-02T14:28:22.328Z,97401
2018-03-02T14:30:28.428Z,97394
2018-03-02T14:32:34.471Z,97397
2018-03-02T14:34:43.152Z,97402
2018-03-02T14:36:48.913Z,97402
2018-03-02T14:38:54.435Z,97401
2018-03-02T14:41:00.241Z,97395
2018-03-02T14:43:06.472Z,97400
2018-03-02T14:45:12.351Z,97400
2018-03-02T14:47:18.099Z,97395
2018-03-02T14:49:23.404Z,97407
2018-03-02T14:51:28.828Z,97407
2018-03-02T14:53:34.407Z,97411
2018-03-02T14:55:39.762Z,97414
2018-03-02T15:00:01.351Z,97403
2018-03-02T15:02:06.710Z,97412
2018-03-02T15:04:12.169Z,97406
2018-03-02T15:06:18.438Z,97417
2018-03-02T15:08:23.800Z,97417
2018-03-02T15:10:29.485Z,97423
2018-03-02T15:12:35.801Z,97423
2018-03-02T15:14:41.475Z,97426
2018-03-02T15:16:46.924Z,97422
2018-03-02T15:18:53.455Z,97420
2018-03-02T15:20:59.890Z,97424
2018-03-02T15:23:05.436Z,97428
2018-03-02T15:25:12.150Z,97428
2018-03-02T15:27:17.472Z,97433
2018-03-02T15:29:22.848Z,97432
2018-03-02T15:31:29.355Z,97437
2018-03-02T15:33:34.684Z,97439
2018-03-02T15:35:40.096Z,97443
2018-03-02T15:37:45.920Z,97446
2018-03-02T15:41:15.268Z,97457
2018-03-02T15:43:21.284Z,97455
2018-03-02T15:45:27.211Z,97465
2018-03-02T15:47:33.528Z,97456
2018-03-02T15:49:40.056Z,97462
2018-03-02T15:51:45.383Z,97461
2018-03-02T15:53:50.764Z,97461
2018-03-02T15:55:57.251Z,97463
2018-03-02T15:58:03.644Z,97463
2018-03-02T16:00:09.010Z,97461
2018-03-02T16:02:14.704Z,97466
2018-03-02T16:04:20.306Z,97462
2018-03-02T16:06:25.703Z,97468
2018-03-02T16:08:31.297Z,97462
2018-03-02T16:10:36.656Z,97467
2018-03-02T16:12:42.190Z,97477
2018-03-02T16:14:47.878Z,97482
2018-03-02T16:16:53.218Z,97482
2018-03-02T16:18:59.703Z,97491
2018-03-02T16:21:05.617Z,97490
2018-03-02T16:23:12.602Z,97494
2018-03-02T16:51:38.412Z,97541
2018-03-02T16:53:44.207Z,97544
2018-03-02T16:55:50.473Z,97543
2018-03-02T16:57:56.120Z,97549
2018-03-02T17:00:01.520Z,97549
2018-03-02T17:02:07.724Z,97552
2018-03-02T17:04:13.354Z,97557
2018-03-02T17:06:18.756Z,97559
2018-03-02T17:08:24.121Z,97551
2018-03-02T17:10:29.768Z,97564
2018-03-02T17:12:35.121Z,97563
2018-03-02T17:14:40.735Z,97566
2018-03-02T17:16:47.258Z,97571
2018-03-02T17:18:52.505Z,97569
2018-03-02T17:20:59.309Z,97572
2018-03-02T17:23:05.311Z,97572
2018-03-02T17:25:10.696Z,97571
2018-03-02T17:27:16.023Z,97574
2018-03-02T17:29:21.700Z,97583
2018-03-02T17:31:28.052Z,97590
2018-03-02T17:33:33.327Z,97600
2018-03-02T17:35:39.039Z,97603
2018-03-02T17:37:44.421Z,97608
2018-03-02T17:39:50.027Z,97611
2018-03-02T17:41:55.950Z,97617
2018-03-02T17:44:02.467Z,97617
2018-03-02T17:46:07.864Z,97617
2018-03-02T17:48:13.822Z,97627
2018-03-02T17:50:20.832Z,97624
2018-03-02T17:52:26.298Z,97627
2018-03-02T17:54:35.044Z,97630
2018-03-02T17:56:40.960Z,97630
2018-03-02T17:58:46.263Z,97628
2018-03-02T18:00:52.070Z,97638
2018-03-02T18:02:59.229Z,97637
2018-03-02T18:05:04.531Z,97634
2018-03-02T18:07:10.733Z,97635
2018-03-02T18:09:16.016Z,97634
2018-03-02T18:11:21.309Z,97635
2018-03-02T18:13:26.923Z,97640
2018-03-02T18:15:32.337Z,97636
2018-03-02T18:17:37.866Z,97636
2018-03-02T18:19:43.600Z,97637
2018-03-02T18:21:48.981Z,97640
2018-03-02T18:23:54.326Z,97642
2018-03-02T18:26:00.118Z,97644
2018-03-02T18:28:05.589Z,97652
2018-03-02T18:30:10.964Z,97658
2018-03-02T18:32:16.600Z,97662
2018-03-02T18:34:22.492Z,97664
2018-03-02T18:36:27.902Z,97665
2018-03-02T18:38:35.530Z,97668
2018-03-02T18:40:41.337Z,97662
2018-03-02T18:42:46.672Z,97667
2018-03-02T18:44:52.418Z,97666
2018-03-02T18:46:57.695Z,97670
2018-03-02T18:49:04.165Z,97673
2018-03-02T18:51:10.005Z,97672
2018-03-02T18:53:16.947Z,97673
2018-03-02T18:55:28.767Z,97672
2018-03-02T18:57:34.450Z,97677
2018-03-02T18:59:39.816Z,97674
2018-03-02T19:01:45.255Z,97666
2018-03-02T19:03:50.898Z,97669
2018-03-02T19:05:56.919Z,97664
2018-03-02T19:08:07.334Z,97666
2018-03-02T19:10:13.505Z,97668
2018-03-02T19:12:19.621Z,97674
2018-03-02T19:14:25.531Z,97674
2018-03-02T19:16:31.646Z,97668
2018-03-02T19:18:37.208Z,97669
2018-03-02T19:20:43.030Z,97666
2018-03-02T19:22:49.856Z,97665
2018-03-02T19:24:55.263Z,97659
2018-03-02T19:27:02.457Z,97658
2018-03-02T19:29:08.229Z,97654
2018-03-02T19:31:13.825Z,97655
2018-03-02T19:33:21.742Z,97654
2018-03-02T19:35:27.589Z,97655
2018-03-02T19:37:32.881Z,97658
2018-03-02T19:39:39.155Z,97659
2018-03-02T19:41:46.257Z,97654
2018-03-02T19:43:52.958Z,97654
2018-03-02T19:46:00.326Z,97649
2018-03-02T19:48:06.280Z,97650
2018-03-02T19:50:12.551Z,97650
2018-03-02T19:52:18.687Z,97657
2018-03-02T19:54:25.523Z,97662
2018-03-02T19:56:31.482Z,97667
2018-03-02T19:58:38.269Z,97671
2018-03-02T20:00:45.364Z,97676
2018-03-02T20:02:51.544Z,97680
2018-03-02T20:04:59.359Z,97677
2018-03-02T20:07:06.806Z,97678
2018-03-02T20:09:13.421Z,97678
2018-03-02T20:11:20.413Z,97681
2018-03-02T20:13:26.097Z,97678
2018-03-02T20:15:31.524Z,97683
2018-03-02T20:17:37.332Z,97683
2018-03-02T20:19:43.802Z,97678
2018-03-02T20:21:49.350Z,97681
2018-03-02T20:23:55.543Z,97675
2018-03-02T20:26:02.357Z,97678
2018-03-02T20:28:08.014Z,97678
2018-03-02T20:30:14.687Z,97676
2018-03-02T20:32:22.265Z,97676
2018-03-02T20:34:36.257Z,97675
2018-03-02T20:36:42.300Z,97676
2018-03-02T20:38:47.958Z,97679
2018-03-02T20:40:54.496Z,97685
2018-03-02T20:43:01.909Z,97682
2018-03-02T20:45:12.603Z,97682
2018-03-02T20:47:18.310Z,97681
2018-03-02T20:49:23.729Z,97677
2018-03-02T20:51:29.558Z,97678
2018-03-02T20:53:34.912Z,97680
2018-03-02T20:55:41.068Z,97679
2018-03-02T20:57:46.941Z,97674
2018-03-02T20:59:52.495Z,97676
2018-03-02T21:01:58.360Z,97671
2018-03-02T21:04:05.070Z,97670
2018-03-02T21:06:11.079Z,97667
2018-03-02T21:08:36.076Z,97666
2018-03-02T21:10:41.628Z,97664
2018-03-02T21:12:47.095Z,97664
2018-03-02T21:14:52.845Z,97666
2018-03-02T21:16:59.091Z,97669
2018-03-02T21:19:04.566Z,97670
2018-03-02T21:21:09.800Z,97662
2018-03-02T21:23:17.510Z,97662
2018-03-02T21:25:22.911Z,97660
2018-03-02T21:27:28.372Z,97659
2018-03-02T21:29:33.998Z,97661
2018-03-02T21:31:40.104Z,97664
2018-03-02T21:33:45.518Z,97662
2018-03-02T21:35:51.434Z,97663
2018-03-02T21:37:56.743Z,97661
2018-03-02T21:40:03.797Z,97659
2018-03-02T21:42:09.540Z,97663
2018-03-02T21:44:14.873Z,97660
2018-03-02T21:46:20.285Z,97660
2018-03-02T21:48:25.833Z,97663
2018-03-02T21:50:31.179Z,97665
2018-03-02T21:52:36.711Z,97667
2018-03-02T21:54:42.904Z,97663
2018-03-02T21:56:48.330Z,97656
2018-03-02T21:58:54.377Z,97658
2018-03-02T22:01:01.189Z,97659
2018-03-02T22:03:07.914Z,97661
2018-03-02T22:05:13.296Z,97658
2018-03-02T22:07:18.947Z,97656
2018-03-02T22:09:24.222Z,97661
2018-03-02T22:11:29.485Z,97657
2018-03-02T22:13:35.106Z,97658
2018-03-02T22:15:40.306Z,97653
2018-03-02T22:17:45.630Z,97649
2018-03-02T22:19:51.148Z,97648
2018-03-02T22:21:56.448Z,97648
2018-03-02T22:24:02.152Z,97653
2018-03-02T22:26:07.733Z,97660
2018-03-02T22:28:13.018Z,97661
2018-03-02T22:30:18.336Z,97655
2018-03-02T22:32:23.823Z,97651
2018-03-02T22:34:29.132Z,97655
2018-03-02T22:36:34.392Z,97650
2018-03-02T22:38:40.463Z,97650
2018-03-02T22:40:45.766Z,97653
2018-03-02T22:42:52.111Z,97656
2018-03-02T22:44:57.696Z,97654
2018-03-02T22:47:04.884Z,97657
2018-03-02T22:49:10.974Z,97658
2018-03-02T22:51:16.505Z,97664
2018-03-02T22:53:21.844Z,97660
2018-03-02T22:55:27.785Z,97652
2018-03-02T22:57:33.764Z,97654
2018-03-02T22:59:39.008Z,97664
2018-03-02T23:01:44.432Z,97660
2018-03-02T23:03:50.111Z,97664
2018-03-02T23:05:55.456Z,97668
2018-03-02T23:08:02.569Z,97665
2018-03-02T23:10:08.152Z,97669
2018-03-02T23:12:13.408Z,97667
2018-03-02T23:14:18.752Z,97669
2018-03-02T23:16:25.110Z,97668
2018-03-02T23:18:30.980Z,97666
2018-03-02T23:20:37.363Z,97668
2018-03-02T23:22:44.005Z,97666
2018-03-02T23:24:50.864Z,97665
2018-03-02T23:27:01.308Z,97662
2018-03-02T23:29:07.408Z,97665
2018-03-02T23:31:12.727Z,97664
2018-03-02T23:33:18.055Z,97667
2018-03-02T23:35:23.704Z,97666
2018-03-02T23:37:30.212Z,97662
2018-03-02T23:39:39.312Z,97666
2018-03-02T23:41:45.633Z,97667
2018-03-02T23:43:56.241Z,97665
2018-03-02T23:46:05.955Z,97670
2018-03-02T23:48:42.970Z,97667
2018-03-02T23:50:48.986Z,97671
2018-03-02T23:55:05.924Z,97676
2018-03-02T23:57:11.492Z,97670
2018-03-02T23:59:16.997Z,97671
